New Ashford, Massachusetts
Current Conditions -  °F | °C
As of 8:52 PM on Friday 21 Nov 2014 (Local Time) from KAQW Reporting Station
Scattered Clouds Scattered Clouds  
Wind Chill: 13°   Ceiling: Unl
Heat Index: 24°   Visibility: 10mi
Dew Point: 10°   Wind: 12mph
Humidity: 55%   Direction: 260°W
Pressure: 30.4"   Gusts: NA
Location:  42.5714°N, 73.2564°W
Report Text: KAQW 220152Z AUTO 26010KT 10SM SCT047 M04/M12 A3040 RMK AO2 SLP305 T10441122
Loading
Personal Weather Stations






























Interactive Weather Map New forecast layout! Learn more

10-Day Weather Forecast

Advertisements
Track Severe Weather on mobile